PDT,Max TemperatureF,Mean TemperatureF,Min TemperatureF,Max Dew PointF,MeanDew PointF,Min DewpointF,Max Humidity, Mean Humidity, Min Humidity, Max Sea Level PressureIn, Mean Sea Level PressureIn, Min Sea Level PressureIn, Max VisibilityMiles, Mean VisibilityMiles, Min VisibilityMiles, Max Wind SpeedMPH, Mean Wind SpeedMPH, Max Gust SpeedMPH,PrecipitationIn, CloudCover, Events, WindDirDegrees
2012-10-1,68,56,46,59,51,44,94,82,58,30.35,30.25,30.17,10,10,8,16,5,22,0.00,1,,278
2012-10-2,57,51,44,50,46,41,96,79,59,30.28,30.22,30.19,10,10,3,15,7,17,0.00,4,,268
2012-10-3,71,54,37,41,33,24,97,56,18,30.34,30.29,30.25,10,9,4,17,7,24,0.01,0,,56
2012-10-4,73,56,39,41,34,26,82,49,18,30.26,30.24,30.21,10,9,2,12,4,20,0.00,0,,50
2012-10-5,73,58,42,41,33,26,79,47,18,30.26,30.22,30.16,10,10,9,17,7,23,0.00,0,,54
2012-10-6,77,60,42,49,35,22,79,49,13,30.22,30.16,30.08,10,10,5,15,7,17,0.00,0,,65
2012-10-7,75,60,44,52,41,32,83,60,28,30.08,30.02,29.93,10,9,2,13,7,,0.00,0,,81
2012-10-8,57,50,44,49,47,41,100,84,72,30.08,30.01,29.94,10,9,5,13,5,,0.00,5,,192
2012-10-9,57,52,46,48,46,44,90,79,72,30.14,30.10,30.06,10,10,8,10,4,,0.00,5,,204
2012-10-10,55,47,39,49,45,39,100,91,72,30.06,30.04,29.99,10,5,0,7,1,,0.00,7,Fog,302
2012-10-11,54,52,51,48,46,45,86,81,75,30.00,29.93,29.85,10,9,5,9,6,,0.00,8,,75
2012-10-12,54,52,51,52,51,46,100,94,82,30.01,29.91,29.85,10,4,1,28,11,39,0.26,8,Rain,140
2012-10-13,57,55,53,56,55,53,100,96,93,30.14,30.12,30.02,10,5,2,24,16,33,0.51,8,Rain,169
2012-10-14,59,56,54,56,55,54,100,94,90,30.11,29.96,29.88,10,4,1,29,18,40,1.48,8,Rain,173
2012-10-15,60,56,53,59,55,53,100,96,88,29.96,29.79,29.59,10,4,0,28,7,37,0.77,8,Fog-Rain,167
2012-10-16,60,52,46,54,48,44,96,82,67,30.32,30.04,29.69,10,9,3,20,11,33,0.06,4,Rain,254
2012-10-17,57,50,42,47,44,43,100,90,62,30.34,30.29,30.21,10,4,0,8,2,,0.00,5,Fog,55
2012-10-18,63,54,46,54,47,44,96,83,52,30.22,29.97,29.84,10,7,2,15,7,,0.40,6,Rain,104
2012-10-19,59,54,46,57,51,46,100,91,77,29.88,29.83,29.78,10,7,2,23,14,31,0.36,8,Rain,241
2012-10-20,53,47,42,44,42,37,96,83,66,29.94,29.89,29.86,10,9,2,21,8,28,0.16,5,Rain,180
2012-10-21,50,44,39,43,41,38,93,86,76,29.88,29.84,29.75,10,7,2,14,8,20,0.14,6,Rain,81
2012-10-22,46,44,42,44,42,39,96,91,86,29.73,29.61,29.56,10,9,3,17,10,22,0.13,7,Rain,55
2012-10-23,48,45,42,43,42,39,93,89,77,29.85,29.79,29.66,10,8,2,22,8,25,0.50,7,Rain,85
2012-10-24,50,46,44,45,43,42,96,90,77,30.17,29.94,29.83,10,9,4,10,7,,0.15,8,Rain,67
2012-10-25,54,47,41,47,44,40,100,91,77,30.40,30.32,30.19,10,7,2,10,7,,0.31,5,Rain,60
2012-10-26,53,50,46,52,48,42,100,94,83,30.27,30.09,30.05,10,5,1,18,9,,0.24,8,Rain,98
2012-10-27,55,52,50,56,52,48,100,96,88,30.07,29.91,29.77,10,4,1,22,11,,1.27,8,Rain,147
2012-10-28,55,53,51,54,53,51,100,97,90,29.98,29.91,29.75,10,6,1,16,7,20,0.73,8,Rain,254
2012-10-29,57,55,53,56,54,52,100,97,93,30.04,29.91,29.75,10,4,1,23,12,31,0.30,8,Rain,189
2012-10-30,57,55,53,57,55,53,100,95,90,29.94,29.79,29.73,10,4,1,24,11,31,2.58,8,Rain,135
2012-10-31,57,55,53,55,54,52,100,94,87,29.75,29.65,29.60,10,5,2,25,10,38,1.79,8,Rain,133